createdAt,value
2023-04-12T00:04:56.114Z,100631.78
2023-04-12T00:10:00.241Z,100572.75
2023-04-12T00:15:05.160Z,100646.09
2023-04-12T00:20:13.563Z,100663.00
2023-04-12T00:25:17.469Z,100670.66
2023-04-12T00:30:22.198Z,100667.25
2023-04-12T00:35:26.995Z,100683.50
2023-04-12T00:40:30.962Z,100702.13
2023-04-12T00:45:35.307Z,100703.81
2023-04-12T00:50:46.065Z,100720.75
2023-04-12T00:55:51.500Z,100727.97
2023-04-12T01:00:58.524Z,100726.16
2023-04-12T01:06:17.466Z,100724.53
2023-04-12T01:11:46.892Z,100748.16
2023-04-12T01:16:59.633Z,100745.66
2023-04-12T01:22:14.898Z,100751.72
2023-04-12T01:27:50.926Z,100761.19
2023-04-12T01:32:58.098Z,100763.06
2023-04-12T01:38:02.245Z,100776.31
2023-04-12T01:43:07.233Z,100775.44
2023-04-12T01:48:13.088Z,100784.03
2023-04-12T01:53:26.304Z,100783.03
2023-04-12T01:58:31.308Z,100779.66
2023-04-12T02:03:38.915Z,100788.16
2023-04-12T02:08:43.049Z,100798.16
2023-04-12T02:13:47.041Z,100799.31
2023-04-12T02:19:11.404Z,100803.69
2023-04-12T02:24:18.329Z,100803.97
2023-04-12T02:29:22.384Z,100807.78
2023-04-12T02:34:26.543Z,100804.69
2023-04-12T02:39:38.456Z,100820.66
2023-04-12T02:44:44.961Z,100820.91
2023-04-12T02:49:50.475Z,100816.59
2023-04-12T02:54:57.058Z,100826.34
2023-04-12T03:00:01.052Z,100832.88
2023-04-12T03:05:15.634Z,100830.94
2023-04-12T03:11:37.409Z,100840.16
2023-04-12T03:16:45.140Z,100850.31
2023-04-12T03:21:53.362Z,100864.63
2023-04-12T03:26:58.899Z,100860.97
2023-04-12T03:32:04.273Z,100874.75
2023-04-12T03:37:09.941Z,100859.13
2023-04-12T03:42:32.235Z,100853.50
2023-04-12T03:47:57.739Z,100863.47
2023-04-12T03:53:02.804Z,100859.50
2023-04-12T03:58:09.464Z,100862.78
2023-04-12T04:03:19.714Z,100881.59
2023-04-12T04:08:36.255Z,100883.84
2023-04-12T04:13:41.441Z,100877.59
2023-04-12T04:18:50.003Z,100872.31
2023-04-12T04:23:59.261Z,100817.91
2023-04-12T04:29:04.640Z,100885.69
2023-04-12T04:34:15.272Z,100835.09
2023-04-12T04:39:22.535Z,100886.50
2023-04-12T04:44:26.765Z,100901.59
2023-04-12T04:49:32.769Z,100892.16
2023-04-12T04:54:42.357Z,100924.81
2023-04-12T04:59:46.415Z,100908.69
2023-04-12T05:04:57.242Z,100910.84
2023-04-12T05:10:05.051Z,100901.88
2023-04-12T05:15:12.693Z,100920.09
2023-04-12T05:20:19.951Z,100923.97
2023-04-12T05:25:24.042Z,100932.06
2023-04-12T05:30:35.000Z,100931.19
2023-04-12T05:35:40.674Z,100941.63
2023-04-12T05:40:44.858Z,100927.72
2023-04-12T05:45:54.252Z,100915.50
2023-04-12T05:51:00.403Z,100912.38
2023-04-12T05:56:04.692Z,100915.72
2023-04-12T06:01:08.666Z,100912.16
2023-04-12T06:06:13.522Z,100919.31
2023-04-12T06:11:17.898Z,100920.81
2023-04-12T06:16:21.950Z,100909.03
2023-04-12T06:21:26.592Z,100904.06
2023-04-12T06:26:38.921Z,100924.81
2023-04-12T06:31:45.810Z,100905.38
2023-04-12T06:36:50.407Z,100855.91
2023-04-12T06:41:54.482Z,100906.06
2023-04-12T06:46:58.984Z,100912.66
2023-04-12T06:52:03.910Z,100910.06
2023-04-12T06:57:14.396Z,100898.34
2023-04-12T07:02:19.189Z,100920.16
2023-04-12T07:07:23.385Z,100918.81
2023-04-12T07:12:27.425Z,100930.81
2023-04-12T07:17:31.388Z,100875.56
2023-04-12T07:22:36.431Z,100913.16
2023-04-12T07:27:40.369Z,100937.25
2023-04-12T07:32:44.487Z,100934.78
2023-04-12T07:37:48.483Z,100932.53
2023-04-12T07:42:52.515Z,100940.94
2023-04-12T07:47:56.851Z,100939.84
2023-04-12T07:53:23.867Z,100943.28
2023-04-12T07:58:28.117Z,100921.66
2023-04-12T08:03:32.387Z,100932.72
2023-04-12T08:08:36.455Z,100937.44
2023-04-12T08:13:40.224Z,100939.84
2023-04-12T08:18:44.295Z,100927.63
2023-04-12T08:23:48.390Z,100949.50
2023-04-12T08:28:52.286Z,100929.69
2023-04-12T08:33:57.465Z,100935.03
2023-04-12T08:39:02.434Z,100941.72
2023-04-12T08:44:06.951Z,100939.56
2023-04-12T08:49:12.399Z,100945.53
2023-04-12T08:54:16.645Z,100934.31
2023-04-12T08:59:21.418Z,100936.00
2023-04-12T09:04:33.128Z,100936.91
2023-04-12T09:09:43.902Z,100939.50
2023-04-12T09:14:48.248Z,100936.84
2023-04-12T09:19:52.512Z,100946.78
2023-04-12T09:24:56.791Z,100941.81
2023-04-12T09:30:11.414Z,100941.03
2023-04-12T09:35:15.717Z,100921.91
2023-04-12T09:40:26.149Z,100948.13
2023-04-12T09:45:32.247Z,100943.41
2023-04-12T09:50:36.481Z,100879.13
2023-04-12T09:55:40.444Z,100897.22
2023-04-12T10:00:46.173Z,100958.41
2023-04-12T10:05:50.112Z,100960.94
2023-04-12T10:10:55.978Z,100950.19
2023-04-12T10:16:01.688Z,100928.47
2023-04-12T10:21:07.214Z,100937.94
2023-04-12T10:26:11.818Z,100936.47
2023-04-12T10:31:43.058Z,100937.31
2023-04-12T10:37:00.645Z,100940.59
2023-04-12T10:42:19.446Z,100940.53
2023-04-12T10:48:02.930Z,100940.97
2023-04-12T10:53:19.010Z,100942.16
2023-04-12T10:58:50.668Z,100936.28
2023-04-12T11:04:18.037Z,100934.72
2023-04-12T11:09:58.894Z,100935.63
2023-04-12T11:15:14.872Z,100940.06
2023-04-12T11:20:28.585Z,100930.69
2023-04-12T11:25:33.772Z,100935.38
2023-04-12T11:30:38.137Z,100943.16
2023-04-12T11:35:44.894Z,100924.69
2023-04-12T11:40:49.729Z,100933.81
2023-04-12T11:46:01.228Z,100925.69
2023-04-12T11:51:32.150Z,100932.19
2023-04-12T11:56:36.496Z,100930.59
2023-04-12T12:01:40.898Z,100913.50
2023-04-12T12:06:47.288Z,100930.09
2023-04-12T12:11:52.005Z,100921.31
2023-04-12T12:16:59.592Z,100934.28
2023-04-12T12:22:24.590Z,100932.03
2023-04-12T12:27:32.190Z,100937.84
2023-04-12T12:32:38.717Z,100920.69
2023-04-12T12:37:54.022Z,100949.31
2023-04-12T12:42:57.993Z,100924.47
2023-04-12T12:48:03.806Z,100931.72
2023-04-12T12:53:09.307Z,100940.75
2023-04-12T12:58:13.149Z,100943.81
2023-04-12T13:03:18.195Z,100941.47
2023-04-12T13:08:22.426Z,100946.81
2023-04-12T13:13:27.416Z,100954.09
2023-04-12T13:18:31.278Z,100948.38
2023-04-12T13:23:35.828Z,100950.44
2023-04-12T13:28:39.707Z,100957.69
2023-04-12T13:33:44.055Z,100971.59
2023-04-12T13:38:48.490Z,100966.81
2023-04-12T13:43:52.470Z,100963.66
2023-04-12T13:48:57.027Z,100969.84
2023-04-12T13:54:01.999Z,100967.81
2023-04-12T13:59:07.994Z,100962.78
2023-04-12T14:04:12.092Z,100970.81
2023-04-12T14:09:28.845Z,100960.53
2023-04-12T14:14:32.651Z,100976.25
2023-04-12T14:19:36.757Z,100977.31
2023-04-12T14:24:40.744Z,100959.41
2023-04-12T14:29:44.883Z,100948.28
2023-04-12T14:34:48.974Z,100951.69
2023-04-12T14:39:55.558Z,100940.50
2023-04-12T14:44:59.345Z,100945.00
2023-04-12T14:50:05.560Z,100953.81
2023-04-12T14:55:11.201Z,100942.75
2023-04-12T15:00:17.175Z,100943.72
2023-04-12T15:05:21.437Z,100939.44
2023-04-12T15:10:25.684Z,100936.19
2023-04-12T15:15:29.964Z,100941.53
2023-04-12T15:20:33.859Z,100919.25
2023-04-12T15:25:37.937Z,100925.38
2023-04-12T15:30:41.775Z,100925.47
2023-04-12T15:35:46.829Z,100910.75
2023-04-12T15:41:02.065Z,100902.72
2023-04-12T15:46:06.437Z,100894.91
2023-04-12T15:51:10.638Z,100888.78
2023-04-12T15:56:16.535Z,100885.09
2023-04-12T16:01:21.114Z,100876.38
2023-04-12T16:06:26.125Z,100821.41
2023-04-12T16:11:30.067Z,100861.53
2023-04-12T16:16:35.390Z,100857.16
2023-04-12T16:21:44.598Z,100841.50
2023-04-12T16:26:49.000Z,100838.00
2023-04-12T16:31:53.350Z,100827.59
2023-04-12T16:36:58.507Z,100822.28
2023-04-12T16:42:04.215Z,100812.84
2023-04-12T16:47:10.050Z,100802.72
2023-04-12T16:52:14.137Z,100809.50
2023-04-12T16:57:18.502Z,100801.72
2023-04-12T17:02:22.988Z,100806.91
2023-04-12T17:07:27.956Z,100796.63
2023-04-12T17:12:32.086Z,100795.09
2023-04-12T17:17:36.278Z,100787.28
2023-04-12T17:22:40.395Z,100779.00
2023-04-12T17:27:44.449Z,100794.09
2023-04-12T17:32:49.262Z,100787.00
2023-04-12T17:37:53.250Z,100786.88
2023-04-12T17:42:57.154Z,100787.78
2023-04-12T17:48:01.198Z,100773.16
2023-04-12T17:53:06.872Z,100770.53
2023-04-12T17:58:10.782Z,100717.28
2023-04-12T18:03:16.539Z,100753.97
2023-04-12T18:08:20.402Z,100758.16
2023-04-12T18:13:24.584Z,100747.69
2023-04-12T18:18:28.734Z,100749.38
2023-04-12T18:23:33.390Z,100743.38
2023-04-12T18:28:39.120Z,100738.00
2023-04-12T18:33:44.872Z,100731.00
2023-04-12T18:38:48.788Z,100715.69
2023-04-12T18:43:52.966Z,100716.00
2023-04-12T18:48:57.868Z,100720.19
2023-04-12T18:54:01.808Z,100712.94
2023-04-12T18:59:05.984Z,100673.34
2023-04-12T19:04:10.143Z,100681.94
2023-04-12T19:09:14.661Z,100674.44
2023-04-12T19:14:18.795Z,100657.44
2023-04-12T19:19:23.259Z,100645.81
2023-04-12T19:24:27.438Z,100640.28
2023-04-12T19:29:31.567Z,100636.34
2023-04-12T19:34:36.182Z,100626.91
2023-04-12T19:39:41.141Z,100615.91
2023-04-12T19:44:45.119Z,100613.50
2023-04-12T19:49:50.781Z,100603.03
2023-04-12T19:54:58.629Z,100603.97
2023-04-12T20:00:07.831Z,100583.03
2023-04-12T20:05:11.814Z,100579.22
2023-04-12T20:10:16.500Z,100563.91
2023-04-12T20:15:20.406Z,100491.72
2023-04-12T20:20:24.509Z,100432.03
2023-04-12T20:25:28.672Z,100525.59
2023-04-12T20:30:32.613Z,100510.16
2023-04-12T20:35:36.680Z,100490.34
2023-04-12T20:40:41.356Z,100477.19
2023-04-12T20:45:47.394Z,100476.97
2023-04-12T20:50:51.142Z,100455.34
2023-04-12T20:55:55.764Z,100444.84
2023-04-12T21:01:00.870Z,100427.47
2023-04-12T21:06:06.260Z,100410.97
2023-04-12T21:11:11.187Z,100398.69
2023-04-12T21:16:16.999Z,100389.94
2023-04-12T21:21:21.192Z,100384.00
2023-04-12T21:26:26.468Z,100363.88
2023-04-12T21:31:31.265Z,100358.63
2023-04-12T21:36:35.722Z,100281.13
2023-04-12T21:41:39.592Z,100337.09
2023-04-12T21:46:43.446Z,100326.72
2023-04-12T21:51:47.875Z,100298.50
2023-04-12T21:56:51.733Z,100247.78
2023-04-12T22:01:55.834Z,100308.25
2023-04-12T22:07:00.872Z,100301.31
2023-04-12T22:12:07.287Z,100294.56
2023-04-12T22:17:11.198Z,100245.84
2023-04-12T22:22:16.479Z,100231.81
2023-04-12T22:27:20.595Z,100284.59
2023-04-12T22:32:24.813Z,100279.50
2023-04-12T22:37:29.092Z,100272.50
2023-04-12T22:42:33.038Z,100259.56
2023-04-12T22:47:38.199Z,100241.09
2023-04-12T22:52:42.410Z,100254.63
2023-04-12T22:57:47.723Z,100257.81
2023-04-12T23:02:54.372Z,100246.94
2023-04-12T23:07:58.473Z,100247.22
2023-04-12T23:13:02.357Z,100242.69
2023-04-12T23:18:06.565Z,100241.03
2023-04-12T23:23:10.547Z,100229.25
2023-04-12T23:28:19.493Z,100219.25
2023-04-12T23:33:25.915Z,100213.91
2023-04-12T23:38:34.587Z,100192.97
2023-04-12T23:43:38.868Z,100164.69
2023-04-12T23:48:42.863Z,100165.13
2023-04-12T23:53:46.973Z,100175.41
2023-04-12T23:58:50.761Z,100158.13
